createdAt,value
2018-11-13T00:00:18.665Z,8.60
2018-11-13T00:02:48.045Z,8.60
2018-11-13T00:05:17.027Z,8.60
2018-11-13T00:07:45.938Z,8.60
2018-11-13T00:10:14.870Z,8.70
2018-11-13T00:12:43.778Z,8.70
2018-11-13T00:15:13.240Z,8.70
2018-11-13T00:17:42.121Z,8.60
2018-11-13T00:20:13.962Z,8.60
2018-11-13T00:22:43.554Z,8.60
2018-11-13T00:25:13.817Z,8.60
2018-11-13T00:27:43.298Z,8.60
2018-11-13T00:30:14.366Z,8.60
2018-11-13T00:32:43.842Z,8.60
2018-11-13T00:35:13.655Z,8.60
2018-11-13T00:37:42.818Z,8.60
2018-11-13T00:40:13.247Z,8.60
2018-11-13T00:42:43.198Z,8.70
2018-11-13T00:45:12.311Z,8.70
2018-11-13T00:47:41.198Z,8.70
2018-11-13T00:50:11.966Z,8.70
2018-11-13T00:52:41.662Z,8.70
2018-11-13T00:55:10.650Z,8.70
2018-11-13T00:57:40.639Z,8.80
2018-11-13T01:00:12.775Z,8.80
2018-11-13T01:02:41.999Z,8.90
2018-11-13T01:05:13.227Z,8.90
2018-11-13T01:07:42.903Z,8.90
2018-11-13T01:10:13.758Z,8.90
2018-11-13T01:12:43.646Z,9.00
2018-11-13T01:15:14.033Z,9.00
2018-11-13T01:17:43.826Z,9.00
2018-11-13T01:20:13.137Z,9.00
2018-11-13T01:22:42.142Z,9.00
2018-11-13T01:25:11.973Z,9.00
2018-11-13T01:27:41.167Z,9.10
2018-11-13T01:30:11.335Z,9.00
2018-11-13T01:32:41.146Z,9.10
2018-11-13T01:35:11.495Z,9.20
2018-11-13T01:37:40.682Z,9.20
2018-11-13T01:40:11.905Z,9.20
2018-11-13T01:42:41.437Z,9.20
2018-11-13T01:45:11.642Z,9.30
2018-11-13T01:47:40.794Z,9.30
2018-11-13T01:50:10.350Z,9.40
2018-11-13T01:52:39.586Z,9.40
2018-11-13T01:55:10.598Z,9.40
2018-11-13T01:57:39.605Z,9.40
2018-11-13T02:00:20.128Z,9.40
2018-11-13T02:02:50.273Z,9.50
2018-11-13T02:05:20.552Z,9.50
2018-11-13T02:07:50.456Z,9.50
2018-11-13T02:10:19.621Z,9.50
2018-11-13T02:12:48.914Z,9.50
2018-11-13T02:15:18.462Z,9.50
2018-11-13T02:17:47.417Z,9.50
2018-11-13T02:20:17.703Z,9.50
2018-11-13T02:22:46.683Z,9.50
2018-11-13T02:25:16.590Z,9.50
2018-11-13T02:27:45.897Z,9.40
2018-11-13T02:30:16.370Z,9.40
2018-11-13T02:32:45.867Z,9.40
2018-11-13T02:35:15.206Z,9.30
2018-11-13T02:37:44.481Z,9.30
2018-11-13T02:40:13.815Z,9.30
2018-11-13T02:42:42.810Z,9.30
2018-11-13T02:45:14.376Z,9.30
2018-11-13T02:47:46.647Z,9.30
2018-11-13T02:50:16.907Z,9.20
2018-11-13T02:52:45.809Z,9.10
2018-11-13T02:55:15.021Z,9.10
2018-11-13T02:57:44.631Z,9.00
2018-11-13T03:00:15.386Z,9.10
2018-11-13T03:02:44.321Z,9.10
2018-11-13T03:05:14.641Z,9.10
2018-11-13T03:07:43.595Z,9.00
2018-11-13T03:10:13.766Z,9.00
2018-11-13T03:12:42.709Z,9.00
2018-11-13T03:15:13.001Z,9.00
2018-11-13T03:17:42.094Z,9.00
2018-11-13T03:20:13.272Z,9.00
2018-11-13T03:22:42.726Z,9.00
2018-11-13T03:25:14.683Z,9.00
2018-11-13T03:27:43.579Z,9.10
2018-11-13T03:30:20.841Z,9.00
2018-11-13T03:32:49.712Z,9.00
2018-11-13T03:35:18.598Z,8.90
2018-11-13T03:37:47.495Z,9.00
2018-11-13T03:40:16.587Z,9.00
2018-11-13T03:42:46.394Z,9.00
2018-11-13T03:45:15.638Z,9.00
2018-11-13T03:47:44.555Z,9.10
2018-11-13T03:50:17.867Z,9.00
2018-11-13T03:52:47.049Z,9.00
2018-11-13T03:55:16.555Z,9.00
2018-11-13T03:57:46.271Z,9.00
2018-11-13T04:00:18.487Z,9.00
2018-11-13T04:02:47.454Z,9.00
2018-11-13T04:05:17.398Z,9.00
2018-11-13T04:07:48.270Z,9.00
2018-11-13T04:10:18.294Z,9.00
2018-11-13T04:12:47.218Z,9.00
2018-11-13T04:15:17.458Z,9.00
2018-11-13T04:17:46.334Z,9.00
2018-11-13T04:20:16.361Z,9.00
2018-11-13T04:22:45.571Z,9.00
2018-11-13T04:25:14.500Z,9.10
2018-11-13T04:27:43.398Z,9.00
2018-11-13T04:30:14.057Z,9.00
2018-11-13T04:32:43.226Z,9.00
2018-11-13T04:35:14.301Z,9.00
2018-11-13T04:37:43.230Z,9.10
2018-11-13T04:40:16.597Z,9.00
2018-11-13T04:42:49.800Z,9.00
2018-11-13T04:45:19.940Z,9.00
2018-11-13T04:47:49.444Z,9.00
2018-11-13T04:50:19.317Z,9.00
2018-11-13T04:52:48.271Z,9.00
2018-11-13T04:55:17.609Z,9.00
2018-11-13T04:57:47.421Z,9.00
2018-11-13T05:00:18.896Z,9.00
2018-11-13T05:02:47.937Z,9.00
2018-11-13T05:05:17.680Z,8.90
2018-11-13T05:07:47.954Z,9.00
2018-11-13T05:10:21.406Z,9.00
2018-11-13T05:12:50.464Z,8.90
2018-11-13T05:15:19.358Z,9.00
2018-11-13T05:17:48.372Z,8.90
2018-11-13T05:20:17.901Z,9.00
2018-11-13T05:22:46.861Z,8.90
2018-11-13T05:25:17.036Z,9.00
2018-11-13T05:27:45.964Z,9.00
2018-11-13T05:30:17.026Z,9.00
2018-11-13T05:32:45.966Z,9.00
2018-11-13T05:35:16.014Z,9.00
2018-11-13T05:37:45.349Z,9.00
2018-11-13T05:40:18.120Z,8.90
2018-11-13T05:42:47.056Z,8.90
2018-11-13T05:45:17.705Z,8.90
2018-11-13T05:47:46.621Z,9.00
2018-11-13T05:50:16.632Z,9.00
2018-11-13T05:52:46.835Z,8.90
2018-11-13T05:55:16.261Z,8.90
2018-11-13T05:57:45.384Z,8.90
2018-11-13T06:00:18.256Z,8.90
2018-11-13T06:02:47.190Z,9.00
2018-11-13T06:05:16.110Z,8.90
2018-11-13T06:07:45.082Z,8.90
2018-11-13T06:10:14.203Z,9.00
2018-11-13T06:12:43.197Z,9.00
2018-11-13T06:15:13.130Z,9.00
2018-11-13T06:17:42.023Z,9.00
2018-11-13T06:20:12.799Z,9.00
2018-11-13T06:22:41.947Z,9.00
2018-11-13T06:25:12.745Z,9.00
2018-11-13T06:27:42.939Z,9.00
2018-11-13T06:30:16.486Z,9.00
2018-11-13T06:32:45.978Z,9.00
2018-11-13T06:35:14.922Z,9.00
2018-11-13T06:37:43.863Z,9.00
2018-11-13T06:40:12.791Z,9.00
2018-11-13T06:42:41.962Z,9.00
2018-11-13T06:45:13.263Z,9.00
2018-11-13T06:47:42.921Z,9.00
2018-11-13T06:50:12.227Z,9.10
2018-11-13T06:52:41.355Z,9.00
2018-11-13T06:55:13.481Z,9.00
2018-11-13T06:57:42.390Z,9.00
2018-11-13T07:00:11.365Z,9.00
2018-11-13T07:02:40.369Z,9.10
2018-11-13T07:05:13.973Z,9.00
2018-11-13T07:07:43.288Z,9.10
2018-11-13T07:10:13.693Z,9.10
2018-11-13T07:12:44.150Z,9.00
2018-11-13T07:15:14.582Z,9.00
2018-11-13T07:17:45.039Z,9.00
2018-11-13T07:20:15.658Z,9.00
2018-11-13T07:22:44.563Z,9.00
2018-11-13T07:25:14.024Z,9.00
2018-11-13T07:27:43.493Z,9.00
2018-11-13T07:30:13.850Z,8.90
2018-11-13T07:32:43.054Z,8.90
2018-11-13T07:35:13.212Z,9.00
2018-11-13T07:37:44.310Z,8.90
2018-11-13T07:40:13.200Z,9.00
2018-11-13T07:42:42.143Z,9.00
2018-11-13T07:45:13.442Z,9.00
2018-11-13T07:47:43.408Z,9.00
2018-11-13T07:50:12.754Z,9.00
2018-11-13T07:52:41.722Z,9.00
2018-11-13T07:55:11.699Z,9.00
2018-11-13T07:57:40.590Z,9.00
2018-11-13T08:00:11.382Z,9.10
2018-11-13T08:02:40.970Z,9.20
2018-11-13T08:05:09.911Z,9.10
2018-11-13T08:07:43.069Z,9.10
2018-11-13T08:10:12.694Z,9.10
2018-11-13T08:12:41.663Z,9.10
2018-11-13T08:15:13.066Z,9.20
2018-11-13T08:17:42.378Z,9.10
2018-11-13T08:20:12.839Z,9.20
2018-11-13T08:22:42.150Z,9.20
2018-11-13T08:25:11.676Z,9.20
2018-11-13T08:27:41.229Z,9.20
2018-11-13T08:30:15.397Z,9.20
2018-11-13T08:32:45.126Z,9.20
2018-11-13T08:35:14.321Z,9.20
2018-11-13T08:37:43.290Z,9.20
2018-11-13T08:40:14.384Z,9.20
2018-11-13T08:42:44.117Z,9.20
2018-11-13T08:45:13.635Z,9.30
2018-11-13T08:47:42.859Z,9.30
2018-11-13T08:50:12.405Z,9.30
2018-11-13T08:52:41.997Z,9.40
2018-11-13T08:55:11.622Z,9.40
2018-11-13T08:57:40.523Z,9.50
2018-11-13T09:00:11.506Z,9.50
2018-11-13T09:02:41.103Z,9.60
2018-11-13T09:05:10.571Z,9.70
2018-11-13T09:07:39.710Z,9.70
2018-11-13T09:10:10.904Z,9.80
2018-11-13T09:12:40.281Z,9.80
2018-11-13T09:15:10.870Z,9.90
2018-11-13T09:17:39.850Z,9.90
2018-11-13T09:20:10.778Z,9.90
2018-11-13T09:22:39.715Z,9.90
2018-11-13T09:25:11.359Z,9.90
2018-11-13T09:27:40.529Z,9.90
2018-11-13T09:30:11.881Z,9.90
2018-11-13T09:32:41.259Z,9.80
2018-11-13T09:35:11.249Z,9.70
2018-11-13T09:37:40.280Z,9.70
2018-11-13T09:40:11.494Z,9.60
2018-11-13T09:42:41.066Z,9.70
2018-11-13T09:45:10.782Z,9.70
2018-11-13T09:47:40.256Z,9.70
2018-11-13T09:50:12.208Z,9.60
2018-11-13T09:52:42.142Z,9.60
2018-11-13T09:55:12.750Z,9.60
2018-11-13T09:57:41.685Z,9.60
2018-11-13T10:00:14.309Z,9.70
2018-11-13T10:02:45.876Z,9.80
2018-11-13T10:05:14.764Z,9.90
2018-11-13T10:07:43.914Z,9.90
2018-11-13T10:10:13.006Z,10.00
2018-11-13T10:12:41.910Z,10.00
2018-11-13T10:15:13.658Z,10.10
2018-11-13T10:17:42.745Z,10.20
2018-11-13T10:20:12.835Z,10.30
2018-11-13T10:22:42.990Z,10.20
2018-11-13T10:25:12.320Z,10.30
2018-11-13T10:27:41.859Z,10.40
2018-11-13T10:30:18.362Z,10.50
2018-11-13T10:32:47.752Z,10.50
2018-11-13T10:35:18.062Z,10.60
2018-11-13T10:37:46.981Z,10.60
2018-11-13T10:40:17.185Z,10.70
2018-11-13T10:42:46.163Z,10.80
2018-11-13T10:45:19.901Z,10.90
2018-11-13T10:47:48.809Z,10.90
2018-11-13T10:50:19.584Z,11.00
2018-11-13T10:52:48.579Z,11.00
2018-11-13T10:55:17.616Z,11.00
2018-11-13T10:57:46.716Z,11.10
2018-11-13T11:00:21.625Z,11.10
2018-11-13T11:02:56.015Z,11.20
2018-11-13T11:05:28.975Z,11.30
2018-11-13T11:07:58.674Z,11.40
2018-11-13T11:10:27.567Z,11.50
2018-11-13T11:12:57.385Z,11.50
2018-11-13T11:15:26.187Z,11.50
2018-11-13T11:17:55.094Z,11.50
2018-11-13T11:20:24.018Z,11.50
2018-11-13T11:22:53.013Z,11.50
2018-11-13T11:25:22.175Z,11.60
2018-11-13T11:27:50.888Z,11.80
2018-11-13T11:30:19.875Z,11.80
2018-11-13T11:32:48.782Z,11.90
2018-11-13T11:35:17.859Z,12.00
2018-11-13T11:37:46.819Z,12.20
2018-11-13T11:40:15.858Z,12.30
2018-11-13T11:42:45.056Z,12.40
2018-11-13T11:45:14.484Z,12.40
2018-11-13T11:47:43.813Z,12.50
2018-11-13T11:50:13.615Z,12.50
2018-11-13T11:52:42.518Z,12.60
2018-11-13T11:55:12.242Z,12.60
2018-11-13T11:57:41.154Z,12.60
2018-11-13T12:00:12.616Z,12.70
2018-11-13T12:02:41.522Z,12.80
2018-11-13T12:05:10.850Z,12.90
2018-11-13T12:07:39.755Z,12.90
2018-11-13T12:10:10.787Z,12.80
2018-11-13T12:12:39.810Z,12.70
2018-11-13T12:15:10.149Z,12.60
2018-11-13T12:17:39.152Z,12.60
2018-11-13T12:20:09.998Z,12.50
2018-11-13T12:22:38.938Z,12.50
2018-11-13T12:25:10.166Z,12.40
2018-11-13T12:27:39.210Z,12.40
2018-11-13T12:30:10.844Z,12.30
2018-11-13T12:32:39.773Z,12.30
2018-11-13T12:35:10.370Z,12.30
2018-11-13T12:37:39.727Z,12.20
2018-11-13T12:40:11.285Z,12.30
2018-11-13T12:42:40.218Z,11.20
2018-11-13T12:45:09.968Z,12.40
2018-11-13T12:47:39.414Z,12.50
2018-11-13T12:50:10.150Z,12.50
2018-11-13T12:52:39.055Z,12.50
2018-11-13T12:55:10.030Z,12.60
2018-11-13T12:57:38.974Z,12.50
2018-11-13T13:00:11.566Z,12.50
2018-11-13T13:02:40.527Z,12.40
2018-11-13T13:05:09.951Z,12.50
2018-11-13T13:07:39.125Z,12.50
2018-11-13T13:10:10.562Z,12.60
2018-11-13T13:12:39.578Z,12.60
2018-11-13T13:15:10.938Z,12.50
2018-11-13T13:17:40.111Z,12.60
2018-11-13T13:20:12.723Z,12.80
2018-11-13T13:22:42.007Z,13.00
2018-11-13T13:25:12.927Z,13.30
2018-11-13T13:27:41.806Z,13.70
2018-11-13T13:30:14.366Z,13.60
2018-11-13T13:32:43.319Z,13.30
2018-11-13T13:35:49.702Z,13.10
2018-11-13T13:38:18.628Z,12.90
2018-11-13T13:40:48.962Z,12.70
2018-11-13T13:43:18.283Z,12.90
2018-11-13T13:45:47.889Z,13.20
2018-11-13T13:48:17.220Z,13.20
2018-11-13T13:50:46.131Z,13.20
2018-11-13T13:53:16.162Z,13.20
2018-11-13T13:55:45.352Z,13.10
2018-11-13T13:58:14.982Z,12.90
2018-11-13T14:00:44.007Z,12.80
2018-11-13T14:03:13.506Z,12.70
2018-11-13T14:05:42.844Z,12.70
2018-11-13T14:08:12.551Z,12.70
2018-11-13T14:10:41.599Z,12.50
2018-11-13T14:13:10.785Z,12.50
2018-11-13T14:15:39.759Z,12.50
2018-11-13T14:18:08.879Z,12.50
2018-11-13T14:20:37.792Z,12.40
2018-11-13T14:23:06.721Z,12.40
2018-11-13T14:25:35.606Z,12.30
2018-11-13T14:28:04.567Z,12.40
2018-11-13T14:30:34.710Z,12.60
2018-11-13T14:33:04.967Z,12.60
2018-11-13T14:35:34.100Z,12.50
2018-11-13T14:38:03.386Z,12.40
2018-11-13T14:40:34.016Z,12.40
2018-11-13T14:43:03.259Z,12.30
2018-11-13T14:45:32.365Z,12.30
2018-11-13T14:48:01.483Z,12.20
2018-11-13T14:50:31.691Z,12.20
2018-11-13T14:53:00.964Z,12.40
2018-11-13T14:55:31.542Z,12.60
2018-11-13T14:58:01.377Z,12.70
2018-11-13T15:00:31.622Z,12.70
2018-11-13T15:03:01.551Z,12.70
2018-11-13T15:05:30.941Z,12.70
2018-11-13T15:08:01.261Z,12.70
2018-11-13T15:10:39.811Z,12.70
2018-11-13T15:13:09.237Z,12.50
2018-11-13T15:15:38.111Z,12.30
2018-11-13T15:18:07.762Z,12.10
2018-11-13T15:20:36.763Z,12.10
2018-11-13T15:23:07.216Z,11.90
2018-11-13T15:25:36.105Z,11.80
2018-11-13T15:28:05.882Z,11.80
2018-11-13T15:30:36.035Z,11.70
2018-11-13T15:33:07.893Z,11.60
2018-11-13T15:35:36.767Z,11.50
2018-11-13T15:38:06.418Z,11.50
2018-11-13T15:40:35.317Z,11.40
2018-11-13T15:43:04.282Z,11.30
2018-11-13T15:45:33.190Z,11.20
2018-11-13T15:48:03.147Z,11.20
2018-11-13T15:50:33.231Z,11.10
2018-11-13T15:53:02.142Z,11.10
2018-11-13T15:55:31.010Z,11.00
2018-11-13T15:58:00.495Z,11.00
2018-11-13T16:00:33.995Z,11.00
2018-11-13T16:03:09.534Z,10.90
2018-11-13T16:05:42.140Z,10.80
2018-11-13T16:08:11.545Z,10.70
2018-11-13T16:10:40.578Z,10.70
2018-11-13T16:13:09.918Z,10.70
2018-11-13T16:15:39.039Z,10.60
2018-11-13T16:18:10.447Z,10.60
2018-11-13T16:20:39.331Z,10.60
2018-11-13T16:23:08.257Z,10.50
2018-11-13T16:25:37.171Z,10.50
2018-11-13T16:28:06.173Z,10.40
2018-11-13T16:30:36.431Z,10.30
2018-11-13T16:33:05.650Z,10.30
2018-11-13T16:35:34.618Z,10.20
2018-11-13T16:38:04.893Z,10.10
2018-11-13T16:40:34.346Z,10.00
2018-11-13T16:43:03.423Z,9.90
2018-11-13T16:45:34.773Z,9.90
2018-11-13T16:48:06.245Z,9.90
2018-11-13T16:50:37.670Z,9.90
2018-11-13T16:53:09.217Z,9.70
2018-11-13T16:55:43.694Z,9.70
2018-11-13T16:58:13.944Z,9.70
2018-11-13T17:00:42.922Z,9.70
2018-11-13T17:03:11.738Z,9.70
2018-11-13T17:05:40.886Z,9.60
2018-11-13T17:08:09.660Z,9.70
2018-11-13T17:10:40.671Z,9.70
2018-11-13T17:13:09.774Z,9.60
2018-11-13T17:15:38.882Z,9.60
2018-11-13T17:18:08.102Z,9.60
2018-11-13T17:20:37.132Z,9.60
2018-11-13T17:23:05.998Z,9.50
2018-11-13T17:25:36.579Z,9.40
2018-11-13T17:28:06.258Z,9.50
2018-11-13T17:30:35.818Z,9.50
2018-11-13T17:33:06.609Z,9.40
2018-11-13T17:35:35.658Z,9.30
2018-11-13T17:38:04.769Z,9.40
2018-11-13T17:40:35.865Z,9.30
2018-11-13T17:43:06.058Z,9.30
2018-11-13T17:45:38.412Z,9.30
2018-11-13T17:48:08.547Z,9.30
2018-11-13T17:50:39.331Z,9.30
2018-11-13T17:53:08.885Z,9.30
2018-11-13T17:55:37.879Z,9.30
2018-11-13T17:58:14.938Z,9.20
2018-11-13T18:00:46.173Z,9.20
2018-11-13T18:03:16.059Z,9.10
2018-11-13T18:05:45.656Z,9.10
2018-11-13T18:08:14.669Z,9.00
2018-11-13T18:10:44.824Z,9.00
2018-11-13T18:13:13.736Z,9.10
2018-11-13T18:15:42.642Z,9.00
2018-11-13T18:18:11.643Z,8.90
2018-11-13T18:20:41.358Z,8.90
2018-11-13T18:23:10.718Z,8.90
2018-11-13T18:25:42.947Z,8.80
2018-11-13T18:28:12.016Z,8.80
2018-11-13T18:30:40.805Z,8.80
2018-11-13T18:33:10.087Z,8.70
2018-11-13T18:35:40.301Z,8.70
2018-11-13T18:38:11.050Z,8.70
2018-11-13T18:40:39.944Z,8.70
2018-11-13T18:43:08.902Z,8.70
2018-11-13T18:45:39.254Z,8.70
2018-11-13T18:48:08.254Z,8.60
2018-11-13T18:50:38.822Z,8.50
2018-11-13T18:53:07.873Z,8.40
2018-11-13T18:55:38.079Z,8.40
2018-11-13T18:58:07.086Z,8.40
2018-11-13T19:00:37.339Z,8.20
2018-11-13T19:03:08.086Z,8.00
2018-11-13T19:05:37.610Z,7.80
2018-11-13T19:08:09.058Z,7.80
2018-11-13T19:10:47.075Z,7.70
2018-11-13T19:13:17.565Z,7.80
2018-11-13T19:15:50.084Z,7.80
2018-11-13T19:18:24.113Z,7.80
2018-11-13T19:20:53.043Z,7.70
2018-11-13T19:23:22.474Z,7.70
2018-11-13T19:25:51.634Z,7.70
2018-11-13T19:28:20.562Z,7.70
2018-11-13T19:30:49.999Z,7.70
2018-11-13T19:33:18.904Z,7.70
2018-11-13T19:35:49.235Z,7.70
2018-11-13T19:38:18.252Z,7.70
2018-11-13T19:40:47.281Z,7.70
2018-11-13T19:43:16.540Z,7.70
2018-11-13T19:45:45.218Z,7.70
2018-11-13T19:48:14.597Z,7.60
2018-11-13T19:50:43.500Z,7.60
2018-11-13T19:53:12.509Z,7.40
2018-11-13T19:55:41.571Z,7.10
2018-11-13T19:58:10.526Z,7.00
2018-11-13T20:00:40.221Z,7.00
2018-11-13T20:03:10.908Z,7.10
2018-11-13T20:05:39.875Z,6.90
2018-11-13T20:08:16.094Z,6.60
2018-11-13T20:10:51.069Z,6.50
2018-11-13T20:13:22.736Z,6.50
2018-11-13T20:15:56.453Z,6.40
2018-11-13T20:18:27.929Z,6.50
2018-11-13T20:21:04.551Z,6.50
2018-11-13T20:23:38.142Z,6.60
2018-11-13T20:26:09.329Z,6.60
2018-11-13T20:28:43.219Z,6.50
2018-11-13T20:31:18.072Z,6.30
2018-11-13T20:33:47.970Z,6.10
2018-11-13T20:36:16.844Z,6.10
2018-11-13T20:38:45.922Z,6.20
2018-11-13T20:41:14.907Z,6.20
2018-11-13T20:43:43.967Z,6.20
2018-11-13T20:46:12.810Z,6.10
2018-11-13T20:48:42.558Z,5.70
2018-11-13T20:51:11.418Z,5.60
2018-11-13T20:53:40.466Z,5.50
2018-11-13T20:56:09.548Z,5.60
2018-11-13T20:58:38.459Z,5.70
2018-11-13T21:01:07.611Z,5.60
2018-11-13T21:03:36.568Z,5.50
2018-11-13T21:06:07.123Z,5.50
2018-11-13T21:08:36.068Z,5.50
2018-11-13T21:11:05.223Z,5.40
2018-11-13T21:13:34.098Z,5.40
2018-11-13T21:16:04.739Z,5.30
2018-11-13T21:18:36.115Z,5.30
2018-11-13T21:21:06.936Z,5.20
2018-11-13T21:23:36.123Z,5.20
2018-11-13T21:26:06.155Z,5.20
2018-11-13T21:28:40.150Z,5.30
2018-11-13T21:31:09.476Z,5.30
2018-11-13T21:33:38.435Z,5.40
2018-11-13T21:36:07.424Z,5.50
2018-11-13T21:38:36.355Z,5.60
2018-11-13T21:41:05.410Z,5.60
2018-11-13T21:43:34.406Z,5.30
2018-11-13T21:46:03.242Z,5.00
2018-11-13T21:48:32.186Z,4.90
2018-11-13T21:51:01.234Z,4.90
2018-11-13T21:53:30.326Z,4.80
2018-11-13T21:55:59.277Z,4.70
2018-11-13T21:58:28.226Z,4.70
2018-11-13T22:00:57.193Z,4.80
2018-11-13T22:03:26.295Z,4.80
2018-11-13T22:05:55.222Z,4.90
2018-11-13T22:08:24.184Z,4.80
2018-11-13T22:10:53.069Z,4.60
2018-11-13T22:13:22.107Z,4.60
2018-11-13T22:15:51.031Z,4.60
2018-11-13T22:18:20.023Z,4.60
2018-11-13T22:20:48.923Z,4.60
2018-11-13T22:23:17.832Z,4.60
2018-11-13T22:25:46.738Z,4.60
2018-11-13T22:28:15.801Z,4.50
2018-11-13T22:30:44.630Z,4.50
2018-11-13T22:33:13.534Z,4.50
2018-11-13T22:35:42.482Z,4.40
2018-11-13T22:38:11.386Z,4.30
2018-11-13T22:40:40.329Z,4.30
2018-11-13T22:43:09.287Z,4.30
2018-11-13T22:45:38.150Z,4.30
2018-11-13T22:48:07.062Z,4.40
2018-11-13T22:50:35.970Z,4.40
2018-11-13T22:53:05.159Z,4.30
2018-11-13T22:55:34.039Z,4.30
2018-11-13T22:58:02.947Z,4.20
2018-11-13T23:00:38.555Z,4.20
2018-11-13T23:03:08.640Z,4.20
2018-11-13T23:05:37.730Z,4.20
2018-11-13T23:08:07.578Z,4.10
2018-11-13T23:10:36.513Z,4.10
2018-11-13T23:13:05.884Z,4.20
2018-11-13T23:15:34.439Z,4.00
2018-11-13T23:18:03.390Z,3.90
2018-11-13T23:20:32.294Z,3.90
2018-11-13T23:23:01.239Z,3.90
2018-11-13T23:25:30.411Z,3.90
2018-11-13T23:27:59.477Z,3.90
2018-11-13T23:30:29.097Z,3.80
2018-11-13T23:32:58.801Z,3.90
2018-11-13T23:35:27.860Z,3.90
2018-11-13T23:37:58.259Z,3.80
2018-11-13T23:40:28.125Z,3.70
2018-11-13T23:42:57.135Z,3.70
2018-11-13T23:45:26.730Z,3.60
2018-11-13T23:47:55.814Z,3.60
2018-11-13T23:50:25.313Z,3.50
2018-11-13T23:52:53.882Z,3.60
2018-11-13T23:55:22.870Z,3.50
2018-11-13T23:57:51.831Z,3.50
